Time,TemperatureF,DewpointF,PressureIn,WindDirection,WindDirectionDegrees,WindSpeedMPH,WindSpeedGustMPH,Humidity,HourlyPrecipIn,Conditions,Clouds,dailyrainin,SolarRadiationWatts/m^2,SoftwareType,DateUTC
2013-12-02 06:40:00,38.5,29.9,29.53,North,0,8.1,0.0,71,0.00,OVC,OVC,0.04,0.0,WeatherDisplay:10.37,2013-12-02 14:40:00,
2013-12-02 06:41:00,38.5,29.9,29.53,North,0,8.1,0.0,71,0.00,CLR,CLR,0.04,0.0,WeatherDisplay:10.37,2013-12-02 14:41:00,
2013-12-02 06:42:00,38.5,29.9,29.53,North,0,8.1,0.0,71,0.00,CLR,CLR,0.04,0.0,WeatherDisplay:10.37,2013-12-02 14:42:00,
2013-12-02 06:43:00,38.5,29.9,29.53,North,0,8.1,0.0,71,0.00,CLR,CLR,0.04,0.0,WeatherDisplay:10.37,2013-12-02 14:43:00,
2013-12-02 06:44:00,38.5,29.9,29.53,North,0,8.1,0.0,71,0.00,CLR,CLR,0.04,0.0,WeatherDisplay:10.37,2013-12-02 14:44:00,
2013-12-02 06:49:00,38.5,29.9,29.53,North,0,8.1,0.0,71,0.00,CLR,CLR,0.04,0.0,WeatherDisplay:10.37,2013-12-02 14:49:00,
2013-12-02 06:54:00,38.5,29.9,29.53,North,0,8.1,0.0,71,0.00,CLR,CLR,0.04,0.0,WeatherDisplay:10.37,2013-12-02 14:54:00,
2013-12-02 06:59:00,38.5,29.9,29.53,NW,326,8.1,8.1,71,0.00,CLR,CLR,0.04,0.0,WeatherDisplay:10.37,2013-12-02 14:59:00,
2013-12-02 07:04:00,38.5,29.9,29.53,North,353,8.1,8.1,71,0.00,CLR,CLR,0.04,0.0,WeatherDisplay:10.37,2013-12-02 15:04:00,
2013-12-02 07:09:00,38.5,29.9,29.53,North,353,8.1,8.1,71,0.00,CLR,CLR,0.04,0.0,WeatherDisplay:10.37,2013-12-02 15:09:00,
2013-12-02 07:14:00,38.8,29.5,29.53,WNW,289,8.1,0.0,69,0.00,CLR,CLR,0.04,0.0,WeatherDisplay:10.37,2013-12-02 15:14:00,
2013-12-02 07:19:00,38.8,29.5,29.53,North,0,8.1,0.0,69,0.00,CLR,CLR,0.04,0.0,WeatherDisplay:10.37,2013-12-02 15:19:00,
2013-12-02 07:24:00,38.8,30.2,29.53,WSW,250,8.1,8.1,71,0.00,CLR,CLR,0.04,0.0,WeatherDisplay:10.37,2013-12-02 15:24:00,
2013-12-02 07:29:00,38.8,30.2,29.56,WSW,250,8.1,8.1,71,0.00,CLR,CLR,0.04,0.0,WeatherDisplay:10.37,2013-12-02 15:29:00,
2013-12-02 07:34:00,39.0,30.8,29.56,WSW,250,8.1,8.1,72,0.00,CLR,CLR,0.04,0.0,WeatherDisplay:10.37,2013-12-02 15:34:00,
2013-12-02 07:39:00,39.0,30.8,29.56,NW,304,8.1,0.0,72,0.00,CLR,CLR,0.04,0.0,WeatherDisplay:10.37,2013-12-02 15:39:00,
2013-12-02 07:44:00,39.0,30.8,29.56,NW,304,8.1,0.0,72,0.00,CLR,CLR,0.04,0.0,WeatherDisplay:10.37,2013-12-02 15:44:00,
2013-12-02 07:49:00,39.0,30.8,29.56,NW,304,8.1,0.0,72,0.00,CLR,CLR,0.04,0.0,WeatherDisplay:10.37,2013-12-02 15:49:00,
2013-12-02 07:54:00,39.0,30.8,29.56,NW,304,8.1,0.0,72,0.00,CLR,CLR,0.04,0.0,WeatherDisplay:10.37,2013-12-02 15:54:00,
2013-12-02 07:59:00,39.0,30.8,29.56,NW,304,8.1,0.0,72,0.00,CLR,CLR,0.04,0.0,WeatherDisplay:10.37,2013-12-02 15:59:00,
2013-12-02 08:04:00,39.0,30.8,29.56,NW,304,8.1,0.0,72,0.00,CLR,CLR,0.04,0.0,WeatherDisplay:10.37,2013-12-02 16:04:00,
2013-12-02 08:09:00,39.0,30.8,29.56,NW,304,8.1,0.0,72,0.00,CLR,CLR,0.04,0.0,WeatherDisplay:10.37,2013-12-02 16:09:00,
2013-12-02 08:14:00,39.0,30.8,29.56,NNW,332,8.1,0.0,72,0.00,CLR,CLR,0.04,0.0,WeatherDisplay:10.37,2013-12-02 16:14:00,
2013-12-02 08:19:00,39.0,30.8,29.56,NNW,332,8.1,0.0,72,0.00,CLR,CLR,0.04,0.0,WeatherDisplay:10.37,2013-12-02 16:19:00,
2013-12-02 08:24:00,39.0,30.8,29.56,NNW,332,8.1,0.0,72,0.00,CLR,CLR,0.04,0.0,WeatherDisplay:10.37,2013-12-02 16:24:00,
2013-12-02 08:29:00,39.0,30.8,29.56,NNW,332,8.1,0.0,72,0.00,CLR,CLR,0.04,0.0,WeatherDisplay:10.37,2013-12-02 16:29:00,
2013-12-02 08:34:00,39.0,30.8,29.56,NNW,332,8.1,0.0,72,0.00,CLR,CLR,0.04,0.0,WeatherDisplay:10.37,2013-12-02 16:34:00,
2013-12-02 08:39:00,39.0,30.8,29.59,NNW,332,8.1,0.0,72,0.00,CLR,CLR,0.04,0.0,WeatherDisplay:10.37,2013-12-02 16:39:00,
2013-12-02 08:44:00,39.0,30.8,29.59,NNW,332,8.1,0.0,72,0.00,CLR,CLR,0.04,0.0,WeatherDisplay:10.37,2013-12-02 16:44:00,
2013-12-02 08:49:00,40.1,27.7,29.59,WNW,284,8.1,8.1,61,0.00,CLR,CLR,0.04,0.0,WeatherDisplay:10.37,2013-12-02 16:49:00,
2013-12-02 08:54:00,40.1,27.7,29.59,WNW,284,8.1,8.1,61,0.00,CLR,CLR,0.04,0.0,WeatherDisplay:10.37,2013-12-02 16:54:00,
2013-12-02 08:59:00,40.1,27.7,29.59,WNW,284,8.1,8.1,61,0.00,CLR,CLR,0.04,0.0,WeatherDisplay:10.37,2013-12-02 16:59:00,
2013-12-02 09:04:00,40.1,27.7,29.59,West,268,8.1,8.1,61,0.00,CLR,CLR,0.04,0.0,WeatherDisplay:10.37,2013-12-02 17:04:00,
2013-12-02 09:09:00,40.1,27.7,29.59,West,268,8.1,8.1,61,0.00,CLR,CLR,0.04,0.0,WeatherDisplay:10.37,2013-12-02 17:09:00,
2013-12-02 09:14:00,40.1,27.7,29.59,West,268,8.1,8.1,61,0.00,CLR,CLR,0.04,0.0,WeatherDisplay:10.37,2013-12-02 17:14:00,
2013-12-02 09:19:00,40.1,27.7,29.59,West,268,8.1,8.1,61,0.00,CLR,CLR,0.04,0.0,WeatherDisplay:10.37,2013-12-02 17:19:00,
2013-12-02 09:24:00,40.1,27.7,29.59,WNW,302,8.1,8.1,61,0.00,CLR,CLR,0.04,0.0,WeatherDisplay:10.37,2013-12-02 17:24:00,
2013-12-02 09:29:00,40.1,27.7,29.59,WNW,302,8.1,8.1,61,0.00,CLR,CLR,0.04,0.0,WeatherDisplay:10.37,2013-12-02 17:29:00,
2013-12-02 09:34:00,40.1,27.7,29.59,WNW,302,8.1,8.1,61,0.00,CLR,CLR,0.04,0.0,WeatherDisplay:10.37,2013-12-02 17:34:00,
2013-12-02 09:39:00,40.1,27.7,29.59,NW,315,8.1,8.1,61,0.00,CLR,CLR,0.04,0.0,WeatherDisplay:10.37,2013-12-02 17:39:00,
2013-12-02 09:44:00,42.1,24.8,29.59,NW,315,8.1,8.1,50,0.00,CLR,CLR,0.04,0.0,WeatherDisplay:10.37,2013-12-02 17:44:00,
2013-12-02 09:49:00,42.1,24.8,29.59,NW,315,8.1,8.1,50,0.00,CLR,CLR,0.04,0.0,WeatherDisplay:10.37,2013-12-02 17:49:00,
2013-12-02 09:54:00,42.1,24.8,29.59,NW,315,8.1,8.1,50,0.00,CLR,CLR,0.04,0.0,WeatherDisplay:10.37,2013-12-02 17:54:00,
2013-12-02 09:59:00,42.1,24.8,29.59,NW,315,8.1,8.1,50,0.00,CLR,CLR,0.04,0.0,WeatherDisplay:10.37,2013-12-02 17:59:00,
2013-12-02 10:04:00,42.1,24.8,29.59,NW,315,8.1,8.1,50,0.00,CLR,CLR,0.04,0.0,WeatherDisplay:10.37,2013-12-02 18:04:00,
2013-12-02 10:09:00,42.1,24.8,29.59,NW,315,8.1,8.1,50,0.00,CLR,CLR,0.04,0.0,WeatherDisplay:10.37,2013-12-02 18:09:00,
2013-12-02 10:14:00,42.1,24.8,29.62,NW,315,8.1,8.1,50,0.00,CLR,CLR,0.04,0.0,WeatherDisplay:10.37,2013-12-02 18:14:00,
2013-12-02 10:19:00,42.1,24.8,29.62,NW,315,8.1,8.1,50,0.00,CLR,CLR,0.04,0.0,WeatherDisplay:10.37,2013-12-02 18:19:00,
2013-12-02 10:24:00,42.1,24.8,29.62,WNW,300,8.1,8.1,50,0.00,CLR,CLR,0.04,0.0,WeatherDisplay:10.37,2013-12-02 18:24:00,
2013-12-02 10:29:00,42.1,24.8,29.62,WNW,300,8.1,8.1,50,0.00,CLR,CLR,0.04,0.0,WeatherDisplay:10.37,2013-12-02 18:29:00,
2013-12-02 10:34:00,42.1,24.8,29.62,WNW,300,8.1,8.1,50,0.00,CLR,CLR,0.04,0.0,WeatherDisplay:10.37,2013-12-02 18:34:00,
2013-12-02 10:39:00,42.1,24.8,29.62,WNW,300,8.1,8.1,50,0.00,CLR,CLR,0.04,0.0,WeatherDisplay:10.37,2013-12-02 18:39:00,
2013-12-02 10:44:00,42.1,24.8,29.62,WNW,300,8.1,8.1,50,0.00,CLR,CLR,0.04,0.0,WeatherDisplay:10.37,2013-12-02 18:44:00,
2013-12-02 10:49:00,42.1,24.8,29.62,WNW,300,8.1,8.1,50,0.00,CLR,CLR,0.04,0.0,WeatherDisplay:10.37,2013-12-02 18:49:00,
2013-12-02 10:54:00,42.1,24.8,29.62,WNW,300,8.1,8.1,50,0.00,CLR,CLR,0.04,0.0,WeatherDisplay:10.37,2013-12-02 18:54:00,
2013-12-02 10:59:00,42.1,24.8,29.62,WNW,300,8.1,8.1,50,0.00,CLR,CLR,0.04,0.0,WeatherDisplay:10.37,2013-12-02 18:59:00,
2013-12-02 11:04:00,42.1,24.8,29.62,North,350,8.1,8.1,50,0.00,CLR,CLR,0.04,0.0,WeatherDisplay:10.37,2013-12-02 19:04:00,
2013-12-02 11:09:00,42.1,24.8,29.62,North,350,8.1,8.1,50,0.00,CLR,CLR,0.04,0.0,WeatherDisplay:10.37,2013-12-02 19:09:00,
2013-12-02 11:14:00,45.5,26.4,29.62,North,350,8.1,8.1,47,0.00,CLR,CLR,0.04,0.0,WeatherDisplay:10.37,2013-12-02 19:14:00,
2013-12-02 11:19:00,45.9,27.3,29.62,West,262,8.1,8.1,48,0.00,CLR,CLR,0.04,0.0,WeatherDisplay:10.37,2013-12-02 19:19:00,
2013-12-02 11:24:00,45.9,27.3,29.62,West,262,8.1,8.1,48,0.00,CLR,CLR,0.04,0.0,WeatherDisplay:10.37,2013-12-02 19:24:00,
2013-12-02 11:29:00,45.5,25.9,29.62,WNW,290,8.1,8.1,46,0.00,CLR,CLR,0.04,0.0,WeatherDisplay:10.37,2013-12-02 19:29:00,
2013-12-02 11:34:00,44.8,24.7,29.62,WNW,290,8.1,8.1,45,0.00,CLR,CLR,0.04,0.0,WeatherDisplay:10.37,2013-12-02 19:34:00,
2013-12-02 11:39:00,44.8,24.7,29.62,WNW,290,8.1,8.1,45,0.00,CLR,CLR,0.04,0.0,WeatherDisplay:10.37,2013-12-02 19:39:00,
2013-12-02 11:44:00,44.8,24.7,29.62,WNW,290,8.1,8.1,45,0.00,CLR,CLR,0.04,0.0,WeatherDisplay:10.37,2013-12-02 19:44:00,
2013-12-02 11:49:00,44.8,24.7,29.62,WNW,290,10.1,10.1,45,0.00,CLR,CLR,0.04,0.0,WeatherDisplay:10.37,2013-12-02 19:49:00,
2013-12-02 11:54:00,44.8,24.7,29.62,WNW,290,8.1,8.1,45,0.00,CLR,CLR,0.04,0.0,WeatherDisplay:10.37,2013-12-02 19:54:00,
2013-12-02 11:59:00,44.8,24.7,29.62,West,266,8.1,8.1,45,0.00,CLR,CLR,0.04,0.0,WeatherDisplay:10.37,2013-12-02 19:59:00,
2013-12-02 12:04:00,44.8,24.7,29.62,West,266,8.1,8.1,45,0.00,CLR,CLR,0.04,0.0,WeatherDisplay:10.37,2013-12-02 20:04:00,
2013-12-02 12:09:00,43.7,25.8,29.62,West,266,8.1,8.1,49,0.00,CLR,CLR,0.04,0.0,WeatherDisplay:10.37,2013-12-02 20:09:00,
2013-12-02 12:14:00,43.7,25.8,29.59,West,266,8.1,8.1,49,0.00,CLR,CLR,0.04,0.0,WeatherDisplay:10.37,2013-12-02 20:14:00,
2013-12-02 12:19:00,43.7,25.8,29.59,West,266,8.1,8.1,49,0.00,CLR,CLR,0.04,0.0,WeatherDisplay:10.37,2013-12-02 20:19:00,
2013-12-02 12:24:00,43.7,25.8,29.59,West,266,8.1,8.1,49,0.00,CLR,CLR,0.04,0.0,WeatherDisplay:10.37,2013-12-02 20:24:00,
2013-12-02 12:29:00,43.7,25.8,29.62,West,266,8.1,8.1,49,0.00,CLR,CLR,0.04,0.0,WeatherDisplay:10.37,2013-12-02 20:29:00,
2013-12-02 12:34:00,43.7,25.8,29.62,NW,314,8.1,8.1,49,0.00,CLR,CLR,0.04,0.0,WeatherDisplay:10.37,2013-12-02 20:34:00,
2013-12-02 12:39:00,43.7,25.8,29.62,NW,326,8.1,8.1,49,0.00,CLR,CLR,0.04,0.0,WeatherDisplay:10.37,2013-12-02 20:39:00,
2013-12-02 12:44:00,43.7,25.8,29.62,NW,326,8.1,8.1,49,0.00,CLR,CLR,0.04,0.0,WeatherDisplay:10.37,2013-12-02 20:44:00,
2013-12-02 12:49:00,43.7,25.8,29.62,NW,326,8.1,8.1,49,0.00,CLR,CLR,0.04,0.0,WeatherDisplay:10.37,2013-12-02 20:49:00,
2013-12-02 12:54:00,43.7,25.8,29.62,NW,326,8.1,8.1,49,0.00,CLR,CLR,0.04,0.0,WeatherDisplay:10.37,2013-12-02 20:54:00,
2013-12-02 12:59:00,43.7,25.8,29.62,NW,326,8.1,8.1,49,0.00,CLR,CLR,0.04,0.0,WeatherDisplay:10.37,2013-12-02 20:59:00,
2013-12-02 13:04:00,43.7,25.8,29.62,West,260,8.1,8.1,49,0.00,CLR,CLR,0.04,0.0,WeatherDisplay:10.37,2013-12-02 21:04:00,
2013-12-02 13:09:00,43.7,25.8,29.62,West,260,8.1,8.1,49,0.00,CLR,CLR,0.04,0.0,WeatherDisplay:10.37,2013-12-02 21:09:00,
2013-12-02 13:14:00,43.7,25.8,29.62,West,260,8.1,8.1,49,0.00,CLR,CLR,0.04,0.0,WeatherDisplay:10.37,2013-12-02 21:14:00,
2013-12-02 13:19:00,43.7,25.8,29.62,West,260,8.1,8.1,49,0.00,CLR,CLR,0.04,0.0,WeatherDisplay:10.37,2013-12-02 21:19:00,
2013-12-02 13:24:00,43.7,25.8,29.62,West,260,8.1,8.1,49,0.00,CLR,CLR,0.04,0.0,WeatherDisplay:10.37,2013-12-02 21:24:00,
2013-12-02 13:29:00,43.7,25.8,29.62,North,0,8.1,8.1,49,0.00,CLR,CLR,0.04,0.0,WeatherDisplay:10.37,2013-12-02 21:29:00,
2013-12-02 13:34:00,43.7,25.8,29.62,North,0,8.1,8.1,49,0.00,CLR,CLR,0.04,0.0,WeatherDisplay:10.37,2013-12-02 21:34:00,
2013-12-02 13:39:00,43.7,25.8,29.62,North,357,8.1,8.1,49,0.00,CLR,CLR,0.04,0.0,WeatherDisplay:10.37,2013-12-02 21:39:00,
2013-12-02 13:44:00,43.7,25.8,29.62,North,357,8.1,8.1,49,0.00,CLR,CLR,0.04,0.0,WeatherDisplay:10.37,2013-12-02 21:44:00,
2013-12-02 13:49:00,44.1,25.6,29.62,North,357,8.1,8.1,48,0.00,CLR,CLR,0.04,0.0,WeatherDisplay:10.37,2013-12-02 21:49:00,
2013-12-02 13:54:00,44.1,25.6,29.62,North,357,8.1,8.1,48,0.00,CLR,CLR,0.04,0.0,WeatherDisplay:10.37,2013-12-02 21:54:00,
2013-12-02 13:59:00,44.2,25.8,29.62,NW,313,8.1,8.1,48,0.00,CLR,CLR,0.04,0.0,WeatherDisplay:10.37,2013-12-02 21:59:00,
2013-12-02 14:04:00,44.2,25.8,29.62,NW,313,8.1,8.1,48,0.00,CLR,CLR,0.04,0.0,WeatherDisplay:10.37,2013-12-02 22:04:00,
2013-12-02 14:09:00,44.2,25.8,29.62,NW,313,8.1,8.1,48,0.00,CLR,CLR,0.04,0.0,WeatherDisplay:10.37,2013-12-02 22:09:00,
2013-12-02 14:14:00,44.2,25.8,29.62,NW,313,8.1,8.1,48,0.00,CLR,CLR,0.04,0.0,WeatherDisplay:10.37,2013-12-02 22:14:00,
2013-12-02 14:19:00,44.2,25.8,29.62,NW,313,8.1,8.1,48,0.00,CLR,CLR,0.04,0.0,WeatherDisplay:10.37,2013-12-02 22:19:00,
2013-12-02 14:24:00,44.2,25.8,29.62,NW,313,8.1,8.1,48,0.00,CLR,CLR,0.04,0.0,WeatherDisplay:10.37,2013-12-02 22:24:00,
2013-12-02 14:29:00,44.2,25.8,29.62,NW,313,8.1,8.1,48,0.00,CLR,CLR,0.04,0.0,WeatherDisplay:10.37,2013-12-02 22:29:00,
2013-12-02 14:34:00,44.2,25.8,29.62,NW,313,8.1,8.1,48,0.00,CLR,CLR,0.04,0.0,WeatherDisplay:10.37,2013-12-02 22:34:00,
2013-12-02 14:39:00,44.2,25.8,29.62,North,0,8.1,8.1,48,0.00,CLR,CLR,0.04,0.0,WeatherDisplay:10.37,2013-12-02 22:39:00,
2013-12-02 14:44:00,44.2,25.8,29.62,North,0,8.1,8.1,48,0.00,CLR,CLR,0.04,0.0,WeatherDisplay:10.37,2013-12-02 22:44:00,
2013-12-02 14:49:00,44.2,25.8,29.62,North,0,8.1,8.1,48,0.00,CLR,CLR,0.04,0.0,WeatherDisplay:10.37,2013-12-02 22:49:00,
2013-12-02 14:54:00,44.2,25.8,29.62,North,0,8.1,8.1,48,0.00,CLR,CLR,0.04,0.0,WeatherDisplay:10.37,2013-12-02 22:54:00,
2013-12-02 14:59:00,44.2,25.8,29.62,North,0,8.1,8.1,48,0.00,CLR,CLR,0.04,0.0,WeatherDisplay:10.37,2013-12-02 22:59:00,
2013-12-02 15:04:00,44.2,25.8,29.62,North,0,8.1,8.1,48,0.00,CLR,CLR,0.04,0.0,WeatherDisplay:10.37,2013-12-02 23:04:00,
2013-12-02 15:09:00,43.5,24.6,29.62,WNW,299,8.1,8.1,47,0.00,CLR,CLR,0.04,0.0,WeatherDisplay:10.37,2013-12-02 23:09:00,
2013-12-02 15:14:00,43.3,23.9,29.62,North,357,8.1,8.1,46,0.00,CLR,CLR,0.04,0.0,WeatherDisplay:10.37,2013-12-02 23:14:00,
2013-12-02 15:19:00,43.3,23.9,29.65,North,357,8.1,8.1,46,0.00,CLR,CLR,0.04,0.0,WeatherDisplay:10.37,2013-12-02 23:19:00,
2013-12-02 15:24:00,43.3,23.9,29.65,North,357,8.1,8.1,46,0.00,CLR,CLR,0.04,0.0,WeatherDisplay:10.37,2013-12-02 23:24:00,
2013-12-02 15:29:00,43.3,23.9,29.65,North,357,8.1,8.1,46,0.00,CLR,CLR,0.04,0.0,WeatherDisplay:10.37,2013-12-02 23:29:00,
2013-12-02 15:34:00,43.3,23.9,29.65,North,353,8.1,8.1,46,0.00,CLR,CLR,0.04,0.0,WeatherDisplay:10.37,2013-12-02 23:34:00,
2013-12-02 15:39:00,43.3,23.9,29.65,North,353,8.1,8.1,46,0.00,CLR,CLR,0.04,0.0,WeatherDisplay:10.37,2013-12-02 23:39:00,
2013-12-02 15:44:00,43.3,23.9,29.65,North,353,8.1,8.1,46,0.00,CLR,CLR,0.04,0.0,WeatherDisplay:10.37,2013-12-02 23:44:00,
2013-12-02 15:49:00,44.4,27.4,29.56,WNW,287,9.0,9.0,51,0.00,CLR,CLR,0.04,0.0,WeatherDisplay:10.37,2013-12-02 23:49:00,
2013-12-02 15:54:00,43.3,23.9,29.65,NW,318,8.1,0.0,46,0.00,CLR,CLR,0.04,0.0,WeatherDisplay:10.37,2013-12-02 23:54:00,
2013-12-02 15:59:00,43.3,23.9,29.65,NW,318,8.1,0.0,46,0.00,CLR,CLR,0.04,0.0,WeatherDisplay:10.37,2013-12-02 23:59:00,
2013-12-02 16:04:00,43.3,23.9,29.65,NW,318,8.1,0.0,46,0.00,CLR,CLR,0.04,0.0,WeatherDisplay:10.37,2013-12-03 00:04:00,
2013-12-02 16:09:00,43.3,23.9,29.65,NW,318,8.1,0.0,46,0.00,CLR,CLR,0.04,0.0,WeatherDisplay:10.37,2013-12-03 00:09:00,
2013-12-02 16:14:00,44.4,27.4,29.56,WNW,287,9.0,9.0,51,0.00,CLR,CLR,0.04,0.0,WeatherDisplay:10.37,2013-12-03 00:14:00,
2013-12-02 16:19:00,44.4,27.4,29.56,WNW,287,9.0,9.0,51,0.00,CLR,CLR,0.04,0.0,WeatherDisplay:10.37,2013-12-03 00:19:00,
2013-12-02 16:24:00,44.4,27.4,29.56,WNW,287,9.0,9.0,51,0.00,CLR,CLR,0.04,0.0,WeatherDisplay:10.37,2013-12-03 00:24:00,
2013-12-02 16:29:00,44.4,27.4,29.56,WNW,287,9.0,9.0,51,0.00,CLR,CLR,0.04,0.0,WeatherDisplay:10.37,2013-12-03 00:29:00,
2013-12-02 16:34:00,44.4,27.4,29.56,WNW,287,9.0,9.0,51,0.00,CLR,CLR,0.04,0.0,WeatherDisplay:10.37,2013-12-03 00:34:00,
2013-12-02 16:39:00,44.4,27.4,29.56,WNW,287,9.0,9.0,51,0.00,CLR,CLR,0.04,0.0,WeatherDisplay:10.37,2013-12-03 00:39:00,
2013-12-02 16:44:00,44.4,27.4,29.56,WNW,287,9.0,9.0,51,0.00,CLR,CLR,0.04,0.0,WeatherDisplay:10.37,2013-12-03 00:44:00,
2013-12-02 16:49:00,44.4,27.4,29.56,WNW,287,9.0,9.0,51,0.00,CLR,CLR,0.04,0.0,WeatherDisplay:10.37,2013-12-03 00:49:00,
2013-12-02 16:54:00,44.4,27.4,29.56,WNW,287,9.0,9.0,51,0.00,CLR,CLR,0.04,0.0,WeatherDisplay:10.37,2013-12-03 00:54:00,
2013-12-02 16:59:00,44.4,27.4,29.56,WNW,287,9.0,9.0,51,0.00,CLR,CLR,0.04,0.0,WeatherDisplay:10.37,2013-12-03 00:59:00,
2013-12-02 17:04:00,44.4,27.4,29.56,WNW,287,9.0,9.0,51,0.00,CLR,CLR,0.04,0.0,WeatherDisplay:10.37,2013-12-03 01:04:00,
2013-12-02 17:09:00,44.4,27.4,29.56,WNW,287,9.0,9.0,51,0.00,CLR,CLR,0.04,0.0,WeatherDisplay:10.37,2013-12-03 01:09:00,
2013-12-02 17:14:00,44.4,27.4,29.56,WNW,287,9.0,9.0,51,0.00,CLR,CLR,0.04,0.0,WeatherDisplay:10.37,2013-12-03 01:14:00,
2013-12-02 17:19:00,44.4,27.4,29.56,WNW,287,9.0,9.0,51,0.00,CLR,CLR,0.04,0.0,WeatherDisplay:10.37,2013-12-03 01:19:00,
2013-12-02 17:24:00,44.4,27.4,29.56,WNW,287,9.0,9.0,51,0.00,CLR,CLR,0.04,0.0,WeatherDisplay:10.37,2013-12-03 01:24:00,
2013-12-02 17:29:00,44.4,27.4,29.56,WNW,287,9.0,9.0,51,0.00,CLR,CLR,0.04,0.0,WeatherDisplay:10.37,2013-12-03 01:29:00,
2013-12-02 17:34:00,44.4,27.4,29.56,WNW,287,9.0,9.0,51,0.00,CLR,CLR,0.04,0.0,WeatherDisplay:10.37,2013-12-03 01:34:00,
2013-12-02 17:39:00,44.4,27.4,29.56,WNW,287,9.0,9.0,51,0.00,CLR,CLR,0.04,0.0,WeatherDisplay:10.37,2013-12-03 01:39:00,
2013-12-02 17:44:00,44.4,27.4,29.56,WNW,287,9.0,9.0,51,0.00,CLR,CLR,0.04,0.0,WeatherDisplay:10.37,2013-12-03 01:44:00,
2013-12-02 17:49:00,44.4,27.4,29.56,WNW,287,9.0,9.0,51,0.00,CLR,CLR,0.04,0.0,WeatherDisplay:10.37,2013-12-03 01:49:00,
2013-12-02 17:54:00,44.4,27.4,29.56,WNW,287,9.0,9.0,51,0.00,CLR,CLR,0.04,0.0,WeatherDisplay:10.37,2013-12-03 01:54:00,
2013-12-02 17:59:00,44.4,27.4,29.56,WNW,287,9.0,9.0,51,0.00,CLR,CLR,0.04,0.0,WeatherDisplay:10.37,2013-12-03 01:59:00,
2013-12-02 18:04:00,44.4,27.4,29.56,WNW,287,9.0,9.0,51,0.00,CLR,CLR,0.04,0.0,WeatherDisplay:10.37,2013-12-03 02:04:00,
2013-12-02 18:09:00,44.4,27.4,29.56,WNW,287,9.0,9.0,51,0.00,CLR,CLR,0.04,0.0,WeatherDisplay:10.37,2013-12-03 02:09:00,
2013-12-02 18:14:00,44.4,27.4,29.56,WNW,287,9.0,9.0,51,0.00,CLR,CLR,0.04,0.0,WeatherDisplay:10.37,2013-12-03 02:14:00,
2013-12-02 18:19:00,44.4,27.4,29.56,WNW,287,9.0,9.0,51,0.00,CLR,CLR,0.04,0.0,WeatherDisplay:10.37,2013-12-03 02:19:00,
2013-12-02 18:24:00,44.4,27.4,29.56,WNW,287,9.0,9.0,51,0.00,CLR,CLR,0.04,0.0,WeatherDisplay:10.37,2013-12-03 02:24:00,
2013-12-02 18:29:00,44.4,27.4,29.56,WNW,287,9.0,9.0,51,0.00,CLR,CLR,0.04,0.0,WeatherDisplay:10.37,2013-12-03 02:29:00,
2013-12-02 18:34:00,44.4,27.4,29.56,WNW,287,9.0,9.0,51,0.00,CLR,CLR,0.04,0.0,WeatherDisplay:10.37,2013-12-03 02:34:00,
2013-12-02 18:39:00,44.4,27.4,29.56,WNW,287,9.0,9.0,51,0.00,CLR,CLR,0.04,0.0,WeatherDisplay:10.37,2013-12-03 02:39:00,
2013-12-02 18:44:00,44.4,27.4,29.56,WNW,287,9.0,9.0,51,0.00,CLR,CLR,0.04,0.0,WeatherDisplay:10.37,2013-12-03 02:44:00,
2013-12-02 18:49:00,44.4,27.4,29.56,WNW,287,9.0,9.0,51,0.00,CLR,CLR,0.04,0.0,WeatherDisplay:10.37,2013-12-03 02:49:00,
2013-12-02 18:54:00,44.4,27.4,29.56,WNW,287,9.0,9.0,51,0.00,CLR,CLR,0.04,0.0,WeatherDisplay:10.37,2013-12-03 02:54:00,
2013-12-02 18:59:00,44.4,27.4,29.56,WNW,287,9.0,9.0,51,0.00,CLR,CLR,0.04,0.0,WeatherDisplay:10.37,2013-12-03 02:59:00,
2013-12-02 19:04:00,44.4,27.4,29.56,WNW,287,9.0,9.0,51,0.00,CLR,CLR,0.04,0.0,WeatherDisplay:10.37,2013-12-03 03:04:00,
2013-12-02 19:09:00,44.4,27.4,29.56,WNW,287,9.0,9.0,51,0.00,CLR,CLR,0.04,0.0,WeatherDisplay:10.37,2013-12-03 03:09:00,
2013-12-02 19:14:00,44.4,27.4,29.56,WNW,287,9.0,9.0,51,0.00,CLR,CLR,0.04,0.0,WeatherDisplay:10.37,2013-12-03 03:14:00,
2013-12-02 19:19:00,44.4,27.4,29.56,WNW,287,9.0,9.0,51,0.00,CLR,CLR,0.04,0.0,WeatherDisplay:10.37,2013-12-03 03:19:00,
2013-12-02 19:25:00,33.8,27.7,29.71,East,81,8.1,0.0,78,0.00,CLR,CLR,0.04,0.0,WeatherDisplay:10.37,2013-12-03 03:25:00,
2013-12-02 19:30:00,33.8,27.7,29.71,East,81,8.1,0.0,78,0.00,CLR,CLR,0.04,0.0,WeatherDisplay:10.37,2013-12-03 03:30:00,
2013-12-02 19:35:00,33.8,27.7,29.71,East,81,8.1,0.0,78,0.00,CLR,CLR,0.04,0.0,WeatherDisplay:10.37,2013-12-03 03:35:00,
2013-12-02 19:40:00,33.8,27.7,29.71,East,81,8.1,0.0,78,0.00,CLR,CLR,0.04,0.0,WeatherDisplay:10.37,2013-12-03 03:40:00,
2013-12-02 19:45:00,33.8,27.7,29.71,East,81,8.1,0.0,78,0.00,CLR,CLR,0.04,0.0,WeatherDisplay:10.37,2013-12-03 03:45:00,
2013-12-02 19:50:00,33.8,27.7,29.71,East,81,8.1,0.0,78,0.00,CLR,CLR,0.04,0.0,WeatherDisplay:10.37,2013-12-03 03:50:00,
2013-12-02 19:55:00,33.8,27.7,29.71,East,81,8.1,0.0,78,0.00,CLR,CLR,0.04,0.0,WeatherDisplay:10.37,2013-12-03 03:55:00,
2013-12-02 20:00:00,32.2,26.7,29.71,East,81,8.1,0.0,80,0.00,CLR,CLR,0.04,0.0,WeatherDisplay:10.37,2013-12-03 04:00:00,
2013-12-02 20:05:00,32.2,26.7,29.71,East,81,8.1,0.0,80,0.00,CLR,CLR,0.04,0.0,WeatherDisplay:10.37,2013-12-03 04:05:00,
2013-12-02 20:10:00,32.2,26.7,29.71,East,81,8.1,0.0,80,0.00,CLR,CLR,0.04,0.0,WeatherDisplay:10.37,2013-12-03 04:10:00,
2013-12-02 20:15:00,32.0,26.5,29.71,East,81,8.1,0.0,80,0.00,CLR,CLR,0.04,0.0,WeatherDisplay:10.37,2013-12-03 04:15:00,
2013-12-02 20:20:00,32.0,26.5,29.74,East,81,8.1,0.0,80,0.00,CLR,CLR,0.04,0.0,WeatherDisplay:10.37,2013-12-03 04:20:00,
2013-12-02 20:25:00,32.0,26.5,29.74,East,81,8.1,0.0,80,0.00,CLR,CLR,0.04,0.0,WeatherDisplay:10.37,2013-12-03 04:25:00,
2013-12-02 20:30:00,31.8,26.4,29.74,East,81,8.1,0.0,80,0.00,CLR,CLR,0.04,0.0,WeatherDisplay:10.37,2013-12-03 04:30:00,
2013-12-02 20:35:00,31.8,26.4,29.74,East,81,8.1,0.0,80,0.00,CLR,CLR,0.04,0.0,WeatherDisplay:10.37,2013-12-03 04:35:00,
2013-12-02 20:40:00,31.8,26.4,29.74,East,81,8.1,0.0,80,0.00,CLR,CLR,0.04,0.0,WeatherDisplay:10.37,2013-12-03 04:40:00,
2013-12-02 20:45:00,31.8,26.4,29.74,East,81,8.1,0.0,80,0.00,CLR,CLR,0.04,0.0,WeatherDisplay:10.37,2013-12-03 04:45:00,
2013-12-02 20:50:00,31.8,26.4,29.74,East,81,8.1,0.0,80,0.00,CLR,CLR,0.04,0.0,WeatherDisplay:10.37,2013-12-03 04:50:00,
2013-12-02 20:55:00,31.8,26.4,29.74,East,81,8.1,0.0,80,0.00,CLR,CLR,0.04,0.0,WeatherDisplay:10.37,2013-12-03 04:55:00,
2013-12-02 21:00:00,31.8,26.4,29.74,East,81,8.1,0.0,80,0.00,CLR,CLR,0.04,0.0,WeatherDisplay:10.37,2013-12-03 05:00:00,
2013-12-02 21:01:00,31.8,26.4,29.74,NNE,25,8.1,0.0,80,0.00,CLR,CLR,0.04,0.0,WeatherDisplay:10.37,2013-12-03 05:01:00,
2013-12-02 21:02:00,31.8,26.4,29.74,NNE,25,8.1,0.0,80,0.00,CLR,CLR,0.04,0.0,WeatherDisplay:10.37,2013-12-03 05:02:00,
2013-12-02 21:03:00,31.8,26.4,29.74,NNE,25,8.1,0.0,80,0.00,CLR,CLR,0.04,0.0,WeatherDisplay:10.37,2013-12-03 05:03:00,
2013-12-02 21:08:00,31.8,26.4,29.74,NNE,25,8.1,0.0,80,0.00,CLR,CLR,0.04,0.0,WeatherDisplay:10.37,2013-12-03 05:08:00,
2013-12-02 21:13:00,31.8,26.4,29.74,NNE,25,8.1,0.0,80,0.00,CLR,CLR,0.04,0.0,WeatherDisplay:10.37,2013-12-03 05:13:00,
2013-12-02 21:18:00,31.8,26.4,29.74,NNE,25,8.1,0.0,80,0.00,CLR,CLR,0.04,0.0,WeatherDisplay:10.37,2013-12-03 05:18:00,
2013-12-02 21:23:00,31.8,26.4,29.74,NNE,25,8.1,0.0,80,0.00,CLR,CLR,0.04,0.0,WeatherDisplay:10.37,2013-12-03 05:23:00,
2013-12-02 21:28:00,31.8,26.4,29.74,NNE,25,8.1,0.0,80,0.00,CLR,CLR,0.04,0.0,WeatherDisplay:10.37,2013-12-03 05:28:00,
2013-12-02 21:33:00,31.8,26.4,29.74,NNE,25,8.1,0.0,80,0.00,CLR,CLR,0.04,0.0,WeatherDisplay:10.37,2013-12-03 05:33:00,
2013-12-02 21:38:00,31.5,26.3,29.74,NNE,25,8.1,0.0,81,0.00,CLR,CLR,0.04,0.0,WeatherDisplay:10.37,2013-12-03 05:38:00,
2013-12-02 21:43:00,31.5,26.3,29.77,NNE,25,8.1,0.0,81,0.00,CLR,CLR,0.04,0.0,WeatherDisplay:10.37,2013-12-03 05:43:00,
2013-12-02 21:48:00,31.5,26.3,29.77,NNE,25,8.1,0.0,81,0.00,CLR,CLR,0.04,0.0,WeatherDisplay:10.37,2013-12-03 05:48:00,
2013-12-02 21:53:00,31.5,26.3,29.77,NNE,25,8.1,0.0,81,0.00,CLR,CLR,0.04,0.0,WeatherDisplay:10.37,2013-12-03 05:53:00,
2013-12-02 21:58:00,31.5,26.3,29.77,NNE,25,8.1,0.0,81,0.00,CLR,CLR,0.04,0.0,WeatherDisplay:10.37,2013-12-03 05:58:00,
2013-12-02 22:03:00,31.5,26.3,29.77,NNE,25,8.1,0.0,81,0.00,CLR,CLR,0.04,0.0,WeatherDisplay:10.37,2013-12-03 06:03:00,
2013-12-02 22:08:00,31.5,26.3,29.77,NNE,25,8.1,0.0,81,0.00,CLR,CLR,0.04,0.0,WeatherDisplay:10.37,2013-12-03 06:08:00,
2013-12-02 22:13:00,31.5,26.3,29.77,NNE,25,8.1,0.0,81,0.00,CLR,CLR,0.04,0.0,WeatherDisplay:10.37,2013-12-03 06:13:00,
2013-12-02 22:18:00,31.5,26.3,29.77,NNE,25,8.1,0.0,81,0.00,CLR,CLR,0.04,0.0,WeatherDisplay:10.37,2013-12-03 06:18:00,
2013-12-02 22:23:00,31.5,26.3,29.77,NNE,25,8.1,0.0,81,0.00,CLR,CLR,0.04,0.0,WeatherDisplay:10.37,2013-12-03 06:23:00,
2013-12-02 22:28:00,31.5,26.3,29.77,NNE,25,8.1,0.0,81,0.00,CLR,CLR,0.04,0.0,WeatherDisplay:10.37,2013-12-03 06:28:00,
2013-12-02 22:33:00,31.5,26.3,29.77,NNE,25,8.1,0.0,81,0.00,CLR,CLR,0.04,0.0,WeatherDisplay:10.37,2013-12-03 06:33:00,
2013-12-02 22:38:00,31.5,26.3,29.77,NNE,25,8.1,0.0,81,0.00,CLR,CLR,0.04,0.0,WeatherDisplay:10.37,2013-12-03 06:38:00,
2013-12-02 22:43:00,31.5,26.3,29.77,NNE,25,8.1,0.0,81,0.00,CLR,CLR,0.04,0.0,WeatherDisplay:10.37,2013-12-03 06:43:00,
2013-12-02 22:48:00,31.5,26.3,29.77,NNE,25,8.1,0.0,81,0.00,CLR,CLR,0.04,0.0,WeatherDisplay:10.37,2013-12-03 06:48:00,
2013-12-02 22:53:00,32.7,27.8,29.77,NNE,25,8.1,0.0,82,0.00,CLR,CLR,0.04,0.0,WeatherDisplay:10.37,2013-12-03 06:53:00,
2013-12-02 22:58:00,32.7,27.8,29.77,NNE,25,8.1,0.0,82,0.00,CLR,CLR,0.04,0.0,WeatherDisplay:10.37,2013-12-03 06:58:00,
2013-12-02 23:03:00,32.7,27.8,29.77,NNE,25,8.1,0.0,82,0.00,CLR,CLR,0.04,0.0,WeatherDisplay:10.37,2013-12-03 07:03:00,
2013-12-02 23:09:00,44.4,27.4,29.56,WNW,287,9.0,9.0,51,0.00,CLR,CLR,0.04,0.0,WeatherDisplay:10.37,2013-12-03 07:09:00,
2013-12-02 23:15:00,44.4,27.4,29.56,WNW,287,9.0,9.0,51,0.00,CLR,CLR,0.04,0.0,WeatherDisplay:10.37,2013-12-03 07:15:00,
2013-12-02 23:20:00,33.4,28.5,29.77,East,100,8.1,0.0,82,0.00,CLR,CLR,0.04,0.0,WeatherDisplay:10.37,2013-12-03 07:20:00,
2013-12-02 23:25:00,33.4,28.5,29.77,East,100,8.1,0.0,82,0.00,CLR,CLR,0.04,0.0,WeatherDisplay:10.37,2013-12-03 07:25:00,
2013-12-02 23:30:00,33.4,28.5,29.77,East,100,8.1,0.0,82,0.04,RA,RA,0.04,0.0,WeatherDisplay:10.37,2013-12-03 07:30:00,
2013-12-02 23:35:00,44.4,27.4,29.56,WNW,287,9.0,9.0,51,0.00,CLR,CLR,0.04,0.0,WeatherDisplay:10.37,2013-12-03 07:35:00,
2013-12-02 23:40:00,44.4,27.4,29.56,WNW,287,9.0,9.0,51,0.00,CLR,CLR,0.04,0.0,WeatherDisplay:10.37,2013-12-03 07:40:00,
2013-12-02 23:45:00,44.4,27.4,29.56,WNW,287,9.0,9.0,51,0.00,CLR,CLR,0.04,0.0,WeatherDisplay:10.37,2013-12-03 07:45:00,
2013-12-02 23:50:00,44.4,27.4,29.56,WNW,287,9.0,9.0,51,0.00,CLR,CLR,0.04,0.0,WeatherDisplay:10.37,2013-12-03 07:50:00,
2013-12-02 23:55:00,44.4,27.4,29.56,WNW,287,9.0,9.0,51,0.00,CLR,CLR,0.04,0.0,WeatherDisplay:10.37,2013-12-03 07:55:00,